createdAt,value
2018-12-14T00:02:28.943Z,1.70
2018-12-14T00:05:00.352Z,1.70
2018-12-14T00:07:31.600Z,1.70
2018-12-14T00:10:00.777Z,1.70
2018-12-14T00:12:29.939Z,1.70
2018-12-14T00:14:59.087Z,1.70
2018-12-14T00:17:28.236Z,1.70
2018-12-14T00:19:57.383Z,1.70
2018-12-14T00:22:26.527Z,1.70
2018-12-14T00:24:55.593Z,1.70
2018-12-14T00:27:25.162Z,1.70
2018-12-14T00:29:54.764Z,1.70
2018-12-14T00:32:23.823Z,1.60
2018-12-14T00:34:53.098Z,1.60
2018-12-14T00:37:22.219Z,1.70
2018-12-14T00:39:51.408Z,1.70
2018-12-14T00:42:20.556Z,1.60
2018-12-14T00:44:49.732Z,1.70
2018-12-14T00:47:18.835Z,1.70
2018-12-14T00:49:47.985Z,1.70
2018-12-14T00:52:17.347Z,1.70
2018-12-14T00:54:46.442Z,1.70
2018-12-14T00:57:15.598Z,1.70
2018-12-14T00:59:45.831Z,1.70
2018-12-14T01:02:20.298Z,1.60
2018-12-14T01:04:49.431Z,1.70
2018-12-14T01:07:18.577Z,1.60
2018-12-14T01:09:47.919Z,1.70
2018-12-14T01:12:17.073Z,1.60
2018-12-14T01:14:46.234Z,1.60
2018-12-14T01:17:15.362Z,1.60
2018-12-14T01:19:44.531Z,1.70
2018-12-14T01:22:13.703Z,1.60
2018-12-14T01:24:42.847Z,1.60
2018-12-14T01:27:11.978Z,1.60
2018-12-14T01:29:41.131Z,1.70
2018-12-14T01:32:10.259Z,1.70
2018-12-14T01:34:39.395Z,1.70
2018-12-14T01:37:08.570Z,1.70
2018-12-14T01:39:37.782Z,1.60
2018-12-14T01:42:07.105Z,1.60
2018-12-14T01:44:36.408Z,1.60
2018-12-14T01:47:05.531Z,1.60
2018-12-14T01:49:34.687Z,1.60
2018-12-14T01:52:03.882Z,1.60
2018-12-14T01:54:33.016Z,1.60
2018-12-14T01:57:02.158Z,1.60
2018-12-14T01:59:31.324Z,1.60
2018-12-14T02:02:00.436Z,1.60
2018-12-14T02:04:29.632Z,1.60
2018-12-14T02:06:58.801Z,1.60
2018-12-14T02:09:27.942Z,1.70
2018-12-14T02:11:57.179Z,1.60
2018-12-14T02:14:26.318Z,1.60
2018-12-14T02:16:56.552Z,1.60
2018-12-14T02:19:25.969Z,1.60
2018-12-14T02:21:55.333Z,1.60
2018-12-14T02:24:24.459Z,1.60
2018-12-14T02:26:53.655Z,1.60
2018-12-14T02:29:22.791Z,1.70
2018-12-14T02:31:52.127Z,1.70
2018-12-14T02:34:21.250Z,1.70
2018-12-14T02:36:50.365Z,1.70
2018-12-14T02:39:19.516Z,1.70
2018-12-14T02:41:48.679Z,1.70
2018-12-14T02:44:17.844Z,1.70
2018-12-14T02:46:46.972Z,1.70
2018-12-14T02:49:16.121Z,1.70
2018-12-14T02:51:45.218Z,1.70
2018-12-14T02:54:14.373Z,1.70
2018-12-14T02:56:43.547Z,1.60
2018-12-14T02:59:12.687Z,1.60
2018-12-14T03:01:41.831Z,1.60
2018-12-14T03:04:10.893Z,1.60
2018-12-14T03:06:40.167Z,1.60
2018-12-14T03:09:09.338Z,1.60
2018-12-14T03:11:38.456Z,1.60
2018-12-14T03:14:07.814Z,1.60
2018-12-14T03:16:37.020Z,1.60
2018-12-14T03:19:06.191Z,1.60
2018-12-14T03:21:35.436Z,1.60
2018-12-14T03:24:04.510Z,1.60
2018-12-14T03:26:33.664Z,1.60
2018-12-14T03:29:02.936Z,1.60
2018-12-14T03:31:32.081Z,1.60
2018-12-14T03:34:01.200Z,1.60
2018-12-14T03:36:30.328Z,1.60
2018-12-14T03:38:59.754Z,1.60
2018-12-14T03:41:28.858Z,1.60
2018-12-14T03:43:58.219Z,1.60
2018-12-14T03:46:27.362Z,1.60
2018-12-14T03:48:56.559Z,1.60
2018-12-14T03:51:28.667Z,1.60
2018-12-14T03:53:58.693Z,1.60
2018-12-14T03:56:27.792Z,1.60
2018-12-14T03:58:56.957Z,1.60
2018-12-14T04:01:26.093Z,1.60
2018-12-14T04:03:55.241Z,1.60
2018-12-14T04:06:24.355Z,1.60
2018-12-14T04:08:55.491Z,1.60
2018-12-14T04:11:24.641Z,1.60
2018-12-14T04:13:53.876Z,1.60
2018-12-14T04:16:23.767Z,1.70
2018-12-14T04:18:52.931Z,1.70
2018-12-14T04:21:22.035Z,1.70
2018-12-14T04:23:51.199Z,1.70
2018-12-14T04:26:20.316Z,1.70
2018-12-14T04:35:36.840Z,1.70
2018-12-14T04:38:07.949Z,1.60
2018-12-14T04:40:37.066Z,1.60
2018-12-14T04:43:06.262Z,1.70
2018-12-14T04:45:35.440Z,1.70
2018-12-14T04:48:04.531Z,1.70
2018-12-14T04:50:33.647Z,1.70
2018-12-14T04:53:02.798Z,1.70
2018-12-14T04:55:31.918Z,1.70
2018-12-14T04:58:01.005Z,1.70
2018-12-14T05:00:30.133Z,1.70
2018-12-14T05:02:59.260Z,1.70
2018-12-14T05:05:28.415Z,1.80
2018-12-14T05:07:57.519Z,1.80
2018-12-14T05:10:26.783Z,1.80
2018-12-14T05:12:56.395Z,1.80
2018-12-14T05:15:25.677Z,1.80
2018-12-14T05:17:55.007Z,1.80
2018-12-14T05:20:24.125Z,1.80
2018-12-14T05:22:53.234Z,1.80
2018-12-14T05:25:22.333Z,1.80
2018-12-14T05:27:51.447Z,1.80
2018-12-14T05:30:20.663Z,1.80
2018-12-14T05:32:49.797Z,1.80
2018-12-14T05:35:18.965Z,1.80
2018-12-14T05:37:48.130Z,1.80
2018-12-14T05:40:17.225Z,1.80
2018-12-14T05:42:46.414Z,1.80
2018-12-14T05:45:15.569Z,1.80
2018-12-14T05:47:45.128Z,1.80
2018-12-14T05:50:14.276Z,1.90
2018-12-14T05:52:43.403Z,1.80
2018-12-14T05:55:12.535Z,1.80
2018-12-14T05:57:41.657Z,1.90
2018-12-14T06:00:12.533Z,1.80
2018-12-14T06:02:41.691Z,1.80
2018-12-14T06:05:10.999Z,1.80
2018-12-14T06:07:40.072Z,1.80
2018-12-14T06:10:09.345Z,1.80
2018-12-14T06:12:38.543Z,1.80
2018-12-14T06:15:07.997Z,1.80
2018-12-14T06:17:37.110Z,1.80
2018-12-14T06:20:07.575Z,1.80
2018-12-14T06:22:36.711Z,1.80
2018-12-14T06:25:06.092Z,1.80
2018-12-14T06:27:35.261Z,1.90
2018-12-14T06:30:05.231Z,1.90
2018-12-14T06:32:34.322Z,1.80
2018-12-14T06:35:03.626Z,1.80
2018-12-14T06:37:32.730Z,1.80
2018-12-14T06:40:01.871Z,1.80
2018-12-14T06:42:33.541Z,1.80
2018-12-14T06:45:02.858Z,1.80
2018-12-14T06:47:32.224Z,1.90
2018-12-14T06:50:01.354Z,1.80
2018-12-14T06:52:31.584Z,1.80
2018-12-14T06:55:00.758Z,1.80
2018-12-14T06:57:29.914Z,1.80
2018-12-14T06:59:59.070Z,1.80
2018-12-14T07:02:28.292Z,1.80
2018-12-14T07:04:57.518Z,1.90
2018-12-14T07:07:26.769Z,1.90
2018-12-14T07:09:56.076Z,1.90
2018-12-14T07:12:25.302Z,1.80
2018-12-14T07:14:54.948Z,1.90
2018-12-14T07:17:24.097Z,1.80
2018-12-14T07:19:53.304Z,1.80
2018-12-14T07:22:22.563Z,1.90
2018-12-14T07:24:52.137Z,1.90
2018-12-14T07:27:21.273Z,1.90
2018-12-14T07:29:50.442Z,1.90
2018-12-14T07:32:19.580Z,1.90
2018-12-14T07:34:48.983Z,1.90
2018-12-14T07:37:18.283Z,1.90
2018-12-14T07:39:47.434Z,1.90
2018-12-14T07:42:16.600Z,1.90
2018-12-14T07:44:45.867Z,1.90
2018-12-14T07:47:15.264Z,1.90
2018-12-14T07:49:44.450Z,1.90
2018-12-14T07:52:13.652Z,1.90
2018-12-14T07:54:42.844Z,1.90
2018-12-14T07:57:12.033Z,1.90
2018-12-14T07:59:41.158Z,2.00
2018-12-14T08:02:10.388Z,2.00
2018-12-14T08:04:39.948Z,2.00
2018-12-14T08:07:09.188Z,2.00
2018-12-14T08:09:38.376Z,2.00
2018-12-14T08:12:07.574Z,2.10
2018-12-14T08:14:36.973Z,2.10
2018-12-14T08:17:06.606Z,2.10
2018-12-14T08:19:35.855Z,2.10
2018-12-14T08:22:05.065Z,2.10
2018-12-14T08:24:34.411Z,2.10
2018-12-14T08:27:03.703Z,2.10
2018-12-14T08:29:32.948Z,2.10
2018-12-14T08:32:02.207Z,2.20
2018-12-14T08:34:31.486Z,2.20
2018-12-14T08:37:00.704Z,2.20
2018-12-14T08:39:29.948Z,2.20
2018-12-14T08:42:00.269Z,2.20
2018-12-14T08:44:29.424Z,2.20
2018-12-14T08:46:58.580Z,2.20
2018-12-14T08:49:27.795Z,2.20
2018-12-14T08:51:57.081Z,2.30
2018-12-14T08:54:26.249Z,2.30
2018-12-14T08:56:55.358Z,2.30
2018-12-14T08:59:24.570Z,2.30
2018-12-14T09:01:53.802Z,2.30
2018-12-14T09:04:22.997Z,2.30
2018-12-14T09:06:52.227Z,2.30
2018-12-14T09:09:21.452Z,2.30
2018-12-14T09:11:50.580Z,2.30
2018-12-14T09:14:19.740Z,2.20
2018-12-14T09:16:48.925Z,2.20
2018-12-14T09:19:19.092Z,2.20
2018-12-14T09:21:48.278Z,2.20
2018-12-14T09:24:17.880Z,2.20
2018-12-14T09:26:47.178Z,2.20
2018-12-14T09:29:16.601Z,2.20
2018-12-14T09:31:46.322Z,2.20
2018-12-14T09:34:15.561Z,2.20
2018-12-14T09:36:45.754Z,2.30
2018-12-14T09:39:14.984Z,2.30
2018-12-14T09:41:44.177Z,2.40
2018-12-14T09:44:13.351Z,2.40
2018-12-14T09:46:42.506Z,2.40
2018-12-14T09:49:11.811Z,2.40
2018-12-14T09:51:41.035Z,2.50
2018-12-14T09:55:39.619Z,2.50
2018-12-14T09:58:08.767Z,2.50
2018-12-14T10:00:37.969Z,2.50
2018-12-14T10:03:07.307Z,2.50
2018-12-14T10:05:36.483Z,2.50
2018-12-14T10:08:05.677Z,2.50
2018-12-14T10:10:34.983Z,2.60
2018-12-14T10:13:04.151Z,2.50
2018-12-14T10:15:33.292Z,2.50
2018-12-14T10:18:02.531Z,2.60
2018-12-14T10:20:31.841Z,2.60
2018-12-14T10:23:01.161Z,2.60
2018-12-14T10:25:30.356Z,2.60
2018-12-14T10:27:59.701Z,2.70
2018-12-14T10:30:28.860Z,2.70
2018-12-14T10:32:57.992Z,2.70
2018-12-14T10:35:27.125Z,2.70
2018-12-14T10:37:56.433Z,2.70
2018-12-14T10:40:25.630Z,2.70
2018-12-14T10:42:54.883Z,2.70
2018-12-14T10:45:25.476Z,2.80
2018-12-14T10:47:54.661Z,2.90
2018-12-14T10:50:23.891Z,2.90
2018-12-14T10:52:53.020Z,2.90
2018-12-14T10:55:22.107Z,3.00
2018-12-14T10:57:51.741Z,2.90
2018-12-14T11:00:26.269Z,2.90
2018-12-14T11:02:55.455Z,2.90
2018-12-14T11:05:24.641Z,2.80
2018-12-14T11:07:53.818Z,2.80
2018-12-14T11:10:22.978Z,2.70
2018-12-14T11:12:52.152Z,2.70
2018-12-14T11:15:21.323Z,2.70
2018-12-14T11:17:50.452Z,2.70
2018-12-14T11:20:19.648Z,2.70
2018-12-14T11:22:51.878Z,2.70
2018-12-14T11:25:21.062Z,2.70
2018-12-14T11:27:50.190Z,2.70
2018-12-14T11:30:19.467Z,2.70
2018-12-14T11:32:48.589Z,2.60
2018-12-14T11:35:17.786Z,2.60
2018-12-14T11:37:46.908Z,2.50
2018-12-14T11:40:16.082Z,2.50
2018-12-14T11:42:45.245Z,2.40
2018-12-14T11:45:14.476Z,2.40
2018-12-14T11:47:43.669Z,2.40
2018-12-14T11:50:13.032Z,2.30
2018-12-14T11:52:42.172Z,2.40
2018-12-14T11:55:11.525Z,2.40
2018-12-14T11:57:40.744Z,2.40
2018-12-14T12:00:14.127Z,2.40
2018-12-14T12:02:43.585Z,2.50
2018-12-14T12:05:13.156Z,2.50
2018-12-14T12:07:43.264Z,2.50
2018-12-14T12:10:12.461Z,2.60
2018-12-14T12:12:41.937Z,2.60
2018-12-14T12:15:11.162Z,2.60
2018-12-14T12:17:40.598Z,2.60
2018-12-14T12:20:09.865Z,2.60
2018-12-14T12:22:39.076Z,2.60
2018-12-14T12:25:08.409Z,2.60
2018-12-14T12:27:37.527Z,2.60
2018-12-14T12:30:08.065Z,2.50
2018-12-14T12:32:37.420Z,2.60
2018-12-14T12:35:08.026Z,2.60
2018-12-14T12:37:37.348Z,2.50
2018-12-14T12:40:06.724Z,2.60
2018-12-14T12:42:35.932Z,2.60
2018-12-14T12:45:05.890Z,2.60
2018-12-14T12:47:35.014Z,2.60
2018-12-14T12:50:04.478Z,2.60
2018-12-14T12:52:33.664Z,2.60
2018-12-14T12:55:02.842Z,2.50
2018-12-14T12:57:32.021Z,2.50
2018-12-14T13:00:01.167Z,2.50
2018-12-14T13:02:30.328Z,2.50
2018-12-14T13:04:59.450Z,2.50
2018-12-14T13:07:28.572Z,2.60
2018-12-14T13:09:57.743Z,2.60
2018-12-14T13:12:26.855Z,2.60
2018-12-14T13:14:56.002Z,2.60
2018-12-14T13:17:25.096Z,2.70
2018-12-14T13:19:54.232Z,2.70
2018-12-14T13:22:23.349Z,2.60
2018-12-14T13:24:52.492Z,2.60
2018-12-14T13:27:21.682Z,2.60
2018-12-14T13:29:50.830Z,2.60
2018-12-14T13:32:19.954Z,2.60
2018-12-14T13:34:49.944Z,2.60
2018-12-14T13:37:19.074Z,2.60
2018-12-14T13:39:48.272Z,2.60
2018-12-14T13:42:17.415Z,2.60
2018-12-14T13:51:34.788Z,2.50
2018-12-14T13:54:03.927Z,2.50
2018-12-14T13:56:34.311Z,2.40
2018-12-14T13:59:03.704Z,2.40
2018-12-14T14:01:32.856Z,2.50
2018-12-14T14:04:02.020Z,2.50
2018-12-14T14:06:31.129Z,2.50
2018-12-14T14:09:00.663Z,2.40
2018-12-14T14:11:30.080Z,2.40
2018-12-14T14:13:59.412Z,2.40
2018-12-14T14:16:28.533Z,2.40
2018-12-14T14:18:57.698Z,2.40
2018-12-14T14:21:26.965Z,2.40
2018-12-14T14:23:56.264Z,2.40
2018-12-14T14:27:54.653Z,2.40
2018-12-14T14:30:24.889Z,2.40
2018-12-14T14:32:54.137Z,2.40
2018-12-14T14:35:23.378Z,2.40
2018-12-14T14:37:57.473Z,2.40
2018-12-14T14:40:24.856Z,2.40
2018-12-14T14:42:54.142Z,2.40
2018-12-14T14:45:23.266Z,2.40
2018-12-14T14:47:52.398Z,2.40
2018-12-14T14:50:21.635Z,2.40
2018-12-14T14:52:50.798Z,2.40
2018-12-14T14:55:20.058Z,2.40
2018-12-14T14:57:49.474Z,2.40
2018-12-14T15:00:18.774Z,2.40
2018-12-14T15:02:47.878Z,2.40
2018-12-14T15:05:17.059Z,2.40
2018-12-14T15:07:46.216Z,2.40
2018-12-14T15:10:15.396Z,2.40
2018-12-14T15:12:44.532Z,2.40
2018-12-14T15:15:13.756Z,2.40
2018-12-14T15:17:42.912Z,2.40
2018-12-14T15:20:12.056Z,2.40
2018-12-14T15:22:41.195Z,2.40
2018-12-14T15:25:10.316Z,2.40
2018-12-14T15:27:39.488Z,2.30
2018-12-14T15:30:09.009Z,2.40
2018-12-14T15:32:38.210Z,2.40
2018-12-14T15:35:07.595Z,2.40
2018-12-14T15:37:36.824Z,2.40
2018-12-14T15:40:08.360Z,2.30
2018-12-14T15:42:37.516Z,2.40
2018-12-14T15:45:12.944Z,2.40
2018-12-14T15:47:38.612Z,2.40
2018-12-14T15:50:08.160Z,2.40
2018-12-14T15:52:37.299Z,2.40
2018-12-14T15:55:06.691Z,2.40
2018-12-14T15:57:35.832Z,2.50
2018-12-14T16:00:05.697Z,2.40
2018-12-14T16:02:34.890Z,2.40
2018-12-14T16:05:04.330Z,2.40
2018-12-14T16:07:33.546Z,2.40
2018-12-14T16:10:02.720Z,2.40
2018-12-14T16:12:32.866Z,2.40
2018-12-14T16:15:02.019Z,2.40
2018-12-14T16:17:32.469Z,2.40
2018-12-14T16:20:01.672Z,2.40
2018-12-14T16:22:31.196Z,2.40
2018-12-14T16:25:00.355Z,2.40
2018-12-14T16:27:29.534Z,2.40
2018-12-14T16:29:58.681Z,2.40
2018-12-14T16:32:28.013Z,2.30
2018-12-14T16:34:57.269Z,2.40
2018-12-14T16:37:26.487Z,2.40
2018-12-14T16:39:55.808Z,2.40
2018-12-14T16:42:25.002Z,2.40
2018-12-14T16:44:54.198Z,2.40
2018-12-14T16:47:23.301Z,2.50
2018-12-14T16:49:52.523Z,2.40
2018-12-14T16:52:21.747Z,2.40
2018-12-14T16:54:51.009Z,2.40
2018-12-14T16:57:20.156Z,2.40
2018-12-14T17:07:20.323Z,2.40
2018-12-14T17:09:49.700Z,2.40
2018-12-14T17:12:18.825Z,2.40
2018-12-14T17:14:47.991Z,2.40
2018-12-14T17:17:17.124Z,2.40
2018-12-14T17:19:46.298Z,2.40
2018-12-14T17:22:15.471Z,2.40
2018-12-14T17:24:44.662Z,2.50
2018-12-14T17:27:13.841Z,2.50
2018-12-14T17:29:43.108Z,2.50
2018-12-14T17:32:12.251Z,2.40
2018-12-14T17:34:41.407Z,2.40
2018-12-14T17:37:12.576Z,2.40
2018-12-14T17:39:42.820Z,2.40
2018-12-14T17:42:13.916Z,2.40
2018-12-14T17:44:43.099Z,2.40
2018-12-14T17:47:12.694Z,2.40
2018-12-14T17:49:41.789Z,2.40
2018-12-14T17:52:10.958Z,2.40
2018-12-14T17:54:40.096Z,2.40
2018-12-14T17:57:09.269Z,2.40
2018-12-14T17:59:38.386Z,2.40
2018-12-14T18:02:07.568Z,2.40
2018-12-14T18:04:37.100Z,2.40
2018-12-14T18:07:06.276Z,2.40
2018-12-14T18:09:35.817Z,2.40
2018-12-14T18:12:05.110Z,2.40
2018-12-14T18:14:34.378Z,2.50
2018-12-14T18:17:03.767Z,2.50
2018-12-14T18:19:33.062Z,2.50
2018-12-14T18:22:02.305Z,2.40
2018-12-14T18:24:31.448Z,2.40
2018-12-14T18:27:00.629Z,2.50
2018-12-14T18:29:29.842Z,2.50
2018-12-14T18:31:59.036Z,2.50
2018-12-14T18:34:28.191Z,2.40
2018-12-14T18:36:58.340Z,2.40
2018-12-14T18:39:27.511Z,2.40
2018-12-14T18:41:56.653Z,2.40
2018-12-14T18:44:25.929Z,2.40
2018-12-14T18:46:55.180Z,2.50
2018-12-14T18:49:24.345Z,2.40
2018-12-14T18:51:53.796Z,2.50
2018-12-14T18:54:23.080Z,2.60
2018-12-14T18:56:52.240Z,2.70
2018-12-14T18:59:21.547Z,2.60
2018-12-14T19:01:50.696Z,2.60
2018-12-14T19:04:19.866Z,2.60
2018-12-14T19:06:49.018Z,2.70
2018-12-14T19:09:18.159Z,2.60
2018-12-14T19:11:47.568Z,2.60
2018-12-14T19:14:16.724Z,2.50
2018-12-14T19:16:45.852Z,2.40
2018-12-14T19:19:14.988Z,2.50
2018-12-14T19:21:44.109Z,2.50
2018-12-14T19:24:13.286Z,2.50
2018-12-14T19:26:42.430Z,2.50
2018-12-14T19:29:12.692Z,2.40
2018-12-14T19:31:41.850Z,2.50
2018-12-14T19:34:10.963Z,2.50
2018-12-14T19:36:40.140Z,2.50
2018-12-14T19:39:09.292Z,2.50
2018-12-14T19:41:40.436Z,2.50
2018-12-14T19:44:10.708Z,2.50
2018-12-14T19:46:39.826Z,2.50
2018-12-14T19:49:09.020Z,2.60
2018-12-14T19:51:38.282Z,2.60
2018-12-14T19:54:07.443Z,2.60
2018-12-14T19:56:37.026Z,2.70
2018-12-14T19:59:06.172Z,2.70
2018-12-14T20:01:35.334Z,2.60
2018-12-14T20:04:04.808Z,2.60
2018-12-14T20:06:34.082Z,2.60
2018-12-14T20:09:04.167Z,2.60
2018-12-14T20:11:34.619Z,2.60
2018-12-14T20:14:04.996Z,2.50
2018-12-14T20:16:34.197Z,2.60
2018-12-14T20:19:03.384Z,2.60
2018-12-14T20:21:32.564Z,2.60
2018-12-14T20:24:01.795Z,2.70
2018-12-14T20:26:31.112Z,2.60
2018-12-14T20:29:00.268Z,2.60
2018-12-14T20:31:29.393Z,2.60
2018-12-14T20:33:58.623Z,2.60
2018-12-14T20:36:27.778Z,2.60
2018-12-14T20:38:56.895Z,2.60
2018-12-14T20:41:26.015Z,2.60
2018-12-14T20:43:55.178Z,2.60
2018-12-14T20:46:24.288Z,2.60
2018-12-14T20:48:53.423Z,2.60
2018-12-14T20:51:22.571Z,2.60
2018-12-14T20:53:51.760Z,2.70
2018-12-14T20:56:20.947Z,2.70
2018-12-14T20:58:50.107Z,2.70
2018-12-14T21:01:19.282Z,2.70
2018-12-14T21:03:48.395Z,2.70
2018-12-14T21:06:17.551Z,2.70
2018-12-14T21:08:46.768Z,2.70
2018-12-14T21:11:15.928Z,2.70
2018-12-14T21:13:45.119Z,2.70
2018-12-14T21:16:14.454Z,2.70
2018-12-14T21:18:43.583Z,2.70
2018-12-14T21:21:12.821Z,2.80
2018-12-14T21:23:41.953Z,2.80
2018-12-14T21:26:11.247Z,2.80
2018-12-14T21:28:40.390Z,2.70
2018-12-14T21:31:09.734Z,2.70
2018-12-14T21:33:38.837Z,2.70
2018-12-14T21:36:08.014Z,2.70
2018-12-14T21:38:37.190Z,2.80
2018-12-14T21:41:06.352Z,2.80
2018-12-14T21:43:35.499Z,2.80
2018-12-14T21:46:04.680Z,2.70
2018-12-14T21:48:33.829Z,2.70
2018-12-14T21:51:02.993Z,2.70
2018-12-14T21:53:32.111Z,2.70
2018-12-14T21:56:01.256Z,2.70
2018-12-14T21:58:30.452Z,2.80
2018-12-14T22:00:59.609Z,2.80
2018-12-14T22:03:29.117Z,2.80
2018-12-14T22:05:58.314Z,2.90
2018-12-14T22:08:27.462Z,2.80
2018-12-14T22:10:56.648Z,2.80
2018-12-14T22:13:25.852Z,2.80
2018-12-14T22:15:54.984Z,2.80
2018-12-14T22:18:24.381Z,2.70
2018-12-14T22:20:53.543Z,2.80
2018-12-14T22:23:22.733Z,2.80
2018-12-14T22:25:51.851Z,2.80
2018-12-14T22:28:20.991Z,2.80
2018-12-14T22:30:50.139Z,2.80
2018-12-14T22:33:19.299Z,2.70
2018-12-14T22:35:48.444Z,2.70
2018-12-14T22:38:17.945Z,2.70
2018-12-14T22:40:47.095Z,2.70
2018-12-14T22:43:16.685Z,2.80
2018-12-14T22:45:45.843Z,2.80
2018-12-14T22:48:15.133Z,2.80
2018-12-14T22:50:44.259Z,2.80
2018-12-14T22:53:13.417Z,2.80
2018-12-14T22:55:42.658Z,2.80
2018-12-14T22:58:11.758Z,2.80
2018-12-14T23:00:46.644Z,2.80
2018-12-14T23:03:15.760Z,2.80
2018-12-14T23:05:44.908Z,2.80
2018-12-14T23:08:14.097Z,2.80
2018-12-14T23:10:44.316Z,2.90
2018-12-14T23:13:13.494Z,2.90
2018-12-14T23:15:43.332Z,2.90
2018-12-14T23:18:12.471Z,2.90
2018-12-14T23:20:41.817Z,2.90
2018-12-14T23:23:11.045Z,2.80
2018-12-14T23:25:40.188Z,2.80
2018-12-14T23:28:09.338Z,2.70
2018-12-14T23:30:38.528Z,2.70
2018-12-14T23:39:55.747Z,2.70
2018-12-14T23:42:24.911Z,2.70
2018-12-14T23:44:54.057Z,2.70
2018-12-14T23:47:23.221Z,2.70
2018-12-14T23:49:52.401Z,2.60
2018-12-14T23:52:21.533Z,2.70
2018-12-14T23:54:50.724Z,2.70
2018-12-14T23:57:19.935Z,2.70
2018-12-14T23:59:49.056Z,2.70
